Calliham, Texas
Current Conditions -  °F | °C
As of 9:55 PM on Friday 24 Oct 2014 (Local Time) from KPEZ Reporting Station
Clear Clear  
Wind Chill: 21°   Ceiling: Unl
Heat Index: 21°   Visibility: 10mi
Dew Point: 15°   Wind: 0mph
Humidity: 70%   Direction: NA
Pressure: 30.13"   Gusts: NA
Location:  28.48°N, 98.35°W
Report Text: KPEZ 250255Z AUTO 00000KT 10SM CLR 21/15 A3013 RMK AO2 T02060150
Loading
Personal Weather Stations






























Interactive Weather Map
Tropical Storm Tracking
New forecast layout! Learn more

10-Day Weather Forecast

Advertisements
Track Severe Weather on mobile